sensor_id;sensor_type;location;lat;lon;timestamp;pressure;altitude;pressure_sealevel;temperature;humidity
68199;BME280;55021;51.554;17.044;2023-02-28T00:06:41;102060.13;;;2.05;69.61
68199;BME280;55021;51.554;17.044;2023-02-28T00:21:43;102009.03;;;1.71;70.67
68199;BME280;55021;51.554;17.044;2023-02-28T00:36:46;102088.94;;;2.19;70.47
68199;BME280;55021;51.554;17.044;2023-02-28T00:51:49;102014.13;;;1.77;70.31
68199;BME280;55021;51.554;17.044;2023-02-28T01:06:51;102031.28;;;1.70;69.71
68199;BME280;55021;51.554;17.044;2023-02-28T01:21:54;102057.75;;;1.98;69.58
68199;BME280;55021;51.554;17.044;2023-02-28T01:36:56;102045.34;;;2.19;69.03
68199;BME280;55021;51.554;17.044;2023-02-28T01:51:59;101962.41;;;1.36;69.71
68199;BME280;55021;51.554;17.044;2023-02-28T02:07:03;102051.56;;;2.19;70.37
68199;BME280;55021;51.554;17.044;2023-02-28T02:22:35;102044.78;;;1.89;71.58
68199;BME280;55021;51.554;17.044;2023-02-28T02:37:42;102077.47;;;2.17;70.45
68199;BME280;55021;51.554;17.044;2023-02-28T02:52:50;102072.03;;;2.19;70.59
68199;BME280;55021;51.554;17.044;2023-02-28T03:07:57;101956.13;;;0.91;70.89
68199;BME280;55021;51.554;17.044;2023-02-28T03:23:17;101959.47;;;1.66;70.31
68199;BME280;55021;51.554;17.044;2023-02-28T03:38:34;102046.50;;;2.35;68.14
68199;BME280;55021;51.554;17.044;2023-02-28T03:53:49;102033.38;;;1.85;69.43
68199;BME280;55021;51.554;17.044;2023-02-28T04:08:58;101984.75;;;1.32;69.63
68199;BME280;55021;51.554;17.044;2023-02-28T04:24:05;102099.34;;;1.80;70.57
68199;BME280;55021;51.554;17.044;2023-02-28T04:39:37;102110.72;;;1.39;72.10
68199;BME280;55021;51.554;17.044;2023-02-28T04:54:42;102069.34;;;0.53;71.93
68199;BME280;55021;51.554;17.044;2023-02-28T05:09:47;102020.53;;;-0.27;73.49
68199;BME280;55021;51.554;17.044;2023-02-28T05:24:57;102137.78;;;0.22;74.36
68199;BME280;55021;51.554;17.044;2023-02-28T05:40:06;102141.00;;;-0.25;76.10
68199;BME280;55021;51.554;17.044;2023-02-28T05:55:11;102138.59;;;-0.98;78.41
68199;BME280;55021;51.554;17.044;2023-02-28T06:10:18;102078.34;;;-0.65;77.56
68199;BME280;55021;51.554;17.044;2023-02-28T06:25:21;102083.16;;;0.10;74.68
68199;BME280;55021;51.554;17.044;2023-02-28T06:40:24;102080.38;;;0.41;73.27
68199;BME280;55021;51.554;17.044;2023-02-28T06:55:27;102077.53;;;0.19;73.60
68199;BME280;55021;51.554;17.044;2023-02-28T07:10:29;102101.63;;;0.95;71.39
68199;BME280;55021;51.554;17.044;2023-02-28T07:25:33;102102.66;;;1.40;71.01
68199;BME280;55021;51.554;17.044;2023-02-28T07:40:38;102231.63;;;1.87;70.90
68199;BME280;55021;51.554;17.044;2023-02-28T07:55:41;102167.22;;;2.64;68.43
68199;BME280;55021;51.554;17.044;2023-02-28T08:10:44;102204.53;;;2.89;68.03
68199;BME280;55021;51.554;17.044;2023-02-28T08:25:52;102210.66;;;2.91;67.02
68199;BME280;55021;51.554;17.044;2023-02-28T08:40:59;102210.88;;;3.28;65.54
68199;BME280;55021;51.554;17.044;2023-02-28T08:56:03;102200.53;;;3.41;64.14
68199;BME280;55021;51.554;17.044;2023-02-28T09:11:07;102197.00;;;4.00;61.67
68199;BME280;55021;51.554;17.044;2023-02-28T09:26:13;102181.50;;;3.47;57.83
68199;BME280;55021;51.554;17.044;2023-02-28T09:41:18;102189.81;;;3.61;56.28
68199;BME280;55021;51.554;17.044;2023-02-28T09:56:25;102139.75;;;3.63;53.36
68199;BME280;55021;51.554;17.044;2023-02-28T10:11:32;102195.50;;;3.74;53.49
68199;BME280;55021;51.554;17.044;2023-02-28T10:26:36;102202.34;;;3.41;55.57
68199;BME280;55021;51.554;17.044;2023-02-28T10:41:42;102193.16;;;3.66;54.34
68199;BME280;55021;51.554;17.044;2023-02-28T10:57:06;102189.94;;;4.36;50.25
68199;BME280;55021;51.554;17.044;2023-02-28T11:12:25;102172.56;;;4.26;50.96
68199;BME280;55021;51.554;17.044;2023-02-28T11:27:44;102169.72;;;4.66;48.66
68199;BME280;55021;51.554;17.044;2023-02-28T11:42:54;102143.13;;;5.15;49.52
68199;BME280;55021;51.554;17.044;2023-02-28T11:58:17;102153.94;;;5.47;50.37
68199;BME280;55021;51.554;17.044;2023-02-28T12:13:26;102146.03;;;5.44;48.01
68199;BME280;55021;51.554;17.044;2023-02-28T12:28:34;102115.28;;;5.34;47.07
68199;BME280;55021;51.554;17.044;2023-02-28T12:43:42;102122.25;;;4.68;52.52
68199;BME280;55021;51.554;17.044;2023-02-28T12:58:49;102097.53;;;4.80;50.80
68199;BME280;55021;51.554;17.044;2023-02-28T13:13:58;102090.91;;;4.52;50.91
68199;BME280;55021;51.554;17.044;2023-02-28T13:29:04;102053.91;;;4.94;51.63
68199;BME280;55021;51.554;17.044;2023-02-28T13:44:23;102078.47;;;4.51;50.53
68199;BME280;55021;51.554;17.044;2023-02-28T13:59:33;102072.16;;;4.52;52.84
68199;BME280;55021;51.554;17.044;2023-02-28T14:30:55;102070.22;;;5.24;51.39
68199;BME280;55021;51.554;17.044;2023-02-28T14:46:01;102048.81;;;4.36;54.08
68199;BME280;55021;51.554;17.044;2023-02-28T15:01:05;102059.25;;;4.42;54.07
68199;BME280;55021;51.554;17.044;2023-02-28T15:16:22;102062.72;;;4.44;54.59
68199;BME280;55021;51.554;17.044;2023-02-28T15:31:27;102000.66;;;3.99;52.63
68199;BME280;55021;51.554;17.044;2023-02-28T15:46:30;102007.91;;;4.33;54.38
68199;BME280;55021;51.554;17.044;2023-02-28T16:01:34;101926.53;;;3.82;55.69
68199;BME280;55021;51.554;17.044;2023-02-28T16:16:42;102031.00;;;3.44;57.68
68199;BME280;55021;51.554;17.044;2023-02-28T16:31:45;102003.84;;;2.94;58.53
68199;BME280;55021;51.554;17.044;2023-02-28T16:46:48;102060.25;;;2.67;62.28
68199;BME280;55021;51.554;17.044;2023-02-28T17:01:53;102077.53;;;2.59;62.29
68199;BME280;55021;51.554;17.044;2023-02-28T17:16:55;102010.13;;;1.66;63.29
68199;BME280;55021;51.554;17.044;2023-02-28T17:31:58;102119.22;;;1.73;64.73
68199;BME280;55021;51.554;17.044;2023-02-28T17:47:01;102097.91;;;1.25;66.13
68199;BME280;55021;51.554;17.044;2023-02-28T18:02:06;102100.22;;;1.10;67.07
68199;BME280;55021;51.554;17.044;2023-02-28T18:17:20;102037.28;;;0.56;66.71
68199;BME280;55021;51.554;17.044;2023-02-28T18:32:42;102044.69;;;0.20;68.26
68199;BME280;55021;51.554;17.044;2023-02-28T18:47:45;102047.16;;;-0.01;69.74
68199;BME280;55021;51.554;17.044;2023-02-28T19:02:47;102027.22;;;-0.16;69.56
68199;BME280;55021;51.554;17.044;2023-02-28T19:17:50;102101.28;;;0.25;69.75
68199;BME280;55021;51.554;17.044;2023-02-28T19:32:53;102023.19;;;-0.27;69.87
68199;BME280;55021;51.554;17.044;2023-02-28T19:47:55;102087.50;;;-0.15;70.27
68199;BME280;55021;51.554;17.044;2023-02-28T20:02:57;102071.63;;;-0.47;71.36
68199;BME280;55021;51.554;17.044;2023-02-28T20:18:00;102041.25;;;-0.99;73.03
68199;BME280;55021;51.554;17.044;2023-02-28T20:33:03;102097.75;;;-0.63;71.14
68199;BME280;55021;51.554;17.044;2023-02-28T20:48:05;102038.44;;;-1.59;73.99
68199;BME280;55021;51.554;17.044;2023-02-28T21:03:08;102018.25;;;-1.66;73.78
68199;BME280;55021;51.554;17.044;2023-02-28T21:18:11;102056.13;;;-1.25;72.71
68199;BME280;55021;51.554;17.044;2023-02-28T21:33:13;102041.34;;;-1.69;74.09
68199;BME280;55021;51.554;17.044;2023-02-28T21:48:16;102070.28;;;-1.60;73.94
68199;BME280;55021;51.554;17.044;2023-02-28T22:03:18;102050.41;;;-1.78;72.99
68199;BME280;55021;51.554;17.044;2023-02-28T22:18:21;102081.06;;;-1.66;73.15
68199;BME280;55021;51.554;17.044;2023-02-28T22:33:24;102129.50;;;-1.58;73.88
68199;BME280;55021;51.554;17.044;2023-02-28T22:48:27;102117.69;;;-1.82;75.56
68199;BME280;55021;51.554;17.044;2023-02-28T23:03:29;102136.84;;;-1.69;73.33
68199;BME280;55021;51.554;17.044;2023-02-28T23:18:32;102050.81;;;-2.33;74.58
68199;BME280;55021;51.554;17.044;2023-02-28T23:33:35;102073.81;;;-2.76;76.70
68199;BME280;55021;51.554;17.044;2023-02-28T23:48:38;102132.75;;;-2.24;74.30
